createdAt,value
2022-10-02T00:00:54.956Z,5.47
2022-10-02T00:03:27.353Z,6.47
2022-10-02T00:06:04.079Z,6.20
2022-10-02T00:08:36.525Z,6.03
2022-10-02T00:11:09.410Z,6.28
2022-10-02T00:13:41.770Z,6.57
2022-10-02T00:16:17.090Z,7.07
2022-10-02T00:18:46.409Z,7.32
2022-10-02T00:21:27.404Z,7.00
2022-10-02T00:23:59.498Z,7.22
2022-10-02T00:26:32.594Z,7.03
2022-10-02T00:29:10.753Z,6.47
2022-10-02T00:31:49.289Z,7.50
2022-10-02T00:34:27.291Z,7.88
2022-10-02T00:37:04.237Z,6.72
2022-10-02T00:39:49.084Z,7.40
2022-10-02T00:42:42.231Z,7.47
2022-10-02T00:45:32.852Z,6.80
2022-10-02T00:48:11.258Z,7.88
2022-10-02T00:50:47.944Z,7.07
2022-10-02T00:53:27.231Z,7.57
2022-10-02T00:56:13.887Z,7.07
2022-10-02T00:58:59.123Z,7.25
2022-10-02T01:01:36.581Z,7.65
2022-10-02T01:04:09.969Z,6.40
2022-10-02T01:06:38.366Z,6.68
2022-10-02T01:09:06.611Z,7.03
2022-10-02T01:11:36.788Z,5.93
2022-10-02T01:14:05.193Z,5.90
2022-10-02T01:16:34.249Z,7.53
2022-10-02T01:19:02.589Z,5.78
2022-10-02T01:21:37.574Z,5.72
2022-10-02T01:24:14.156Z,6.80
2022-10-02T01:26:43.599Z,6.50
2022-10-02T01:29:11.525Z,6.72
2022-10-02T01:31:39.880Z,6.10
2022-10-02T01:34:08.104Z,5.68
2022-10-02T01:36:37.065Z,5.85
2022-10-02T01:39:05.696Z,6.03
2022-10-02T01:41:39.519Z,6.50
2022-10-02T01:44:08.887Z,5.55
2022-10-02T01:46:42.511Z,5.63
2022-10-02T01:49:25.566Z,5.93
2022-10-02T01:52:12.812Z,5.78
2022-10-02T01:54:53.032Z,6.45
2022-10-02T01:57:32.288Z,5.53
2022-10-02T02:00:09.014Z,5.85
2022-10-02T02:02:55.753Z,6.38
2022-10-02T02:05:33.209Z,7.43
2022-10-02T02:08:09.190Z,7.22
2022-10-02T02:10:46.609Z,6.82
2022-10-02T02:13:21.383Z,6.57
2022-10-02T02:15:55.919Z,6.30
2022-10-02T02:18:30.527Z,6.40
2022-10-02T02:21:01.951Z,6.88
2022-10-02T02:23:35.415Z,6.82
2022-10-02T02:26:07.948Z,6.78
2022-10-02T02:28:37.432Z,6.20
2022-10-02T02:31:09.212Z,7.50
2022-10-02T02:33:41.654Z,8.60
2022-10-02T02:36:12.825Z,8.02
2022-10-02T02:38:45.408Z,8.63
2022-10-02T02:41:16.185Z,8.52
2022-10-02T02:43:47.862Z,8.45
2022-10-02T02:46:24.871Z,8.48
2022-10-02T02:48:59.662Z,7.32
2022-10-02T02:51:32.214Z,6.53
2022-10-02T02:54:04.734Z,7.75
2022-10-02T02:56:34.335Z,6.80
2022-10-02T02:59:07.906Z,6.63
2022-10-02T03:01:37.366Z,7.05
2022-10-02T03:04:05.764Z,6.47
2022-10-02T03:06:37.907Z,6.75
2022-10-02T03:09:08.149Z,6.60
2022-10-02T03:11:53.658Z,7.00
2022-10-02T03:14:40.575Z,6.05
2022-10-02T03:17:22.360Z,6.70
2022-10-02T03:19:54.161Z,6.50
2022-10-02T03:22:29.261Z,6.82
2022-10-02T03:25:04.262Z,7.45
2022-10-02T03:27:37.804Z,8.90
2022-10-02T03:30:08.215Z,9.38
2022-10-02T03:32:41.886Z,10.55
2022-10-02T03:35:13.242Z,10.05
2022-10-02T03:37:43.887Z,9.90
2022-10-02T03:40:12.614Z,10.60
2022-10-02T03:42:41.178Z,10.30
2022-10-02T03:45:09.914Z,10.93
2022-10-02T03:47:39.152Z,12.00
2022-10-02T03:50:07.950Z,12.60
2022-10-02T03:52:36.386Z,11.80
2022-10-02T03:55:11.487Z,11.98
2022-10-02T03:57:39.449Z,11.40
2022-10-02T04:00:13.129Z,11.90
2022-10-02T04:02:46.062Z,11.90
2022-10-02T04:05:23.110Z,11.73
2022-10-02T04:07:55.881Z,12.32
2022-10-02T04:10:37.828Z,13.05
2022-10-02T04:13:12.283Z,11.18
2022-10-02T04:15:54.587Z,10.35
2022-10-02T04:18:28.561Z,10.43
2022-10-02T04:21:00.748Z,11.07
2022-10-02T04:23:32.677Z,12.38
2022-10-02T04:26:04.922Z,12.13
2022-10-02T04:28:39.198Z,12.32
2022-10-02T04:31:12.552Z,11.98
2022-10-02T04:33:42.274Z,12.77
2022-10-02T04:36:25.307Z,11.73
2022-10-02T04:39:10.926Z,12.07
2022-10-02T04:41:51.359Z,11.25
2022-10-02T04:44:31.614Z,10.27
2022-10-02T04:47:20.436Z,9.88
2022-10-02T04:50:14.511Z,10.30
2022-10-02T04:53:12.194Z,9.55
2022-10-02T04:55:57.313Z,10.20
2022-10-02T04:59:01.709Z,10.00
2022-10-02T05:01:44.305Z,9.95
2022-10-02T05:04:30.843Z,10.38
2022-10-02T05:07:23.423Z,10.65
2022-10-02T05:10:01.997Z,10.63
2022-10-02T05:12:45.988Z,12.50
2022-10-02T05:15:59.772Z,14.40
2022-10-02T05:18:58.889Z,12.52
2022-10-02T05:21:42.708Z,12.60
2022-10-02T05:24:23.435Z,14.85
2022-10-02T05:27:07.515Z,16.38
2022-10-02T05:29:59.908Z,14.98
2022-10-02T05:32:47.872Z,15.52
2022-10-02T05:35:28.553Z,16.48
2022-10-02T05:38:08.248Z,16.52
2022-10-02T05:40:42.583Z,16.58
2022-10-02T05:43:14.157Z,18.27
2022-10-02T05:45:47.853Z,17.45
2022-10-02T05:48:19.911Z,18.17
2022-10-02T05:50:52.503Z,17.95
2022-10-02T05:53:31.346Z,17.60
2022-10-02T05:56:06.423Z,19.35
2022-10-02T05:58:38.980Z,17.08
2022-10-02T06:01:12.414Z,19.55
2022-10-02T06:03:45.147Z,17.27
2022-10-02T06:06:17.984Z,17.83
2022-10-02T06:08:50.929Z,18.38
2022-10-02T06:11:24.396Z,18.15
2022-10-02T06:13:57.114Z,10.85
2022-10-02T06:16:31.224Z,16.10
2022-10-02T06:19:05.807Z,15.90
2022-10-02T06:21:39.342Z,13.13
2022-10-02T06:24:17.820Z,15.98
2022-10-02T06:26:52.031Z,16.58
2022-10-02T06:29:27.333Z,16.75
2022-10-02T06:32:06.032Z,18.23
2022-10-02T06:34:34.080Z,15.68
2022-10-02T06:37:25.710Z,17.40
2022-10-02T06:40:31.044Z,15.65
2022-10-02T06:43:07.294Z,16.13
2022-10-02T06:45:46.224Z,15.00
2022-10-02T06:48:25.590Z,15.70
2022-10-02T06:51:01.546Z,15.07
2022-10-02T06:53:53.556Z,16.30
2022-10-02T06:56:37.865Z,15.00
2022-10-02T06:59:18.330Z,15.38
2022-10-02T07:01:57.517Z,14.73
2022-10-02T07:04:52.072Z,15.40
2022-10-02T07:07:30.913Z,14.88
2022-10-02T07:10:11.113Z,13.90
2022-10-02T07:12:55.005Z,15.23
2022-10-02T07:15:41.804Z,15.05
2022-10-02T07:18:19.724Z,15.98
2022-10-02T07:20:57.938Z,14.85
2022-10-02T07:23:40.219Z,14.93
2022-10-02T07:26:22.186Z,13.15
2022-10-02T07:28:58.077Z,12.25
2022-10-02T07:31:38.987Z,12.45
2022-10-02T07:34:18.984Z,10.88
2022-10-02T07:39:33.160Z,10.77
2022-10-02T07:42:25.931Z,10.85
2022-10-02T07:45:21.011Z,10.70
2022-10-02T07:48:07.249Z,10.13
2022-10-02T07:50:42.296Z,9.63
2022-10-02T07:53:18.894Z,10.00
2022-10-02T07:55:53.226Z,8.80
2022-10-02T07:58:31.933Z,9.02
2022-10-02T08:01:02.589Z,7.40
2022-10-02T08:03:36.507Z,8.15
2022-10-02T08:06:06.893Z,9.18
2022-10-02T08:08:43.960Z,8.10
2022-10-02T08:11:17.074Z,9.23
2022-10-02T08:13:48.698Z,8.23
2022-10-02T08:16:22.659Z,7.55
2022-10-02T08:18:58.123Z,7.82
2022-10-02T08:21:27.275Z,6.95
2022-10-02T08:24:00.124Z,7.45
2022-10-02T08:26:35.371Z,6.82
2022-10-02T08:29:07.939Z,6.85
2022-10-02T08:31:36.079Z,6.20
2022-10-02T08:34:14.953Z,5.43
2022-10-02T08:36:58.395Z,6.88
2022-10-02T08:40:03.328Z,6.00
2022-10-02T08:43:08.513Z,5.60
2022-10-02T08:46:08.789Z,5.53
2022-10-02T08:49:18.602Z,5.50
2022-10-02T08:55:07.007Z,5.78
2022-10-02T08:58:18.794Z,5.20
2022-10-02T09:00:55.697Z,4.50
2022-10-02T09:04:10.629Z,5.60
2022-10-02T09:07:20.927Z,5.78
2022-10-02T09:10:27.004Z,5.07
2022-10-02T09:13:30.644Z,4.32
2022-10-02T09:16:10.422Z,4.50
2022-10-02T09:21:35.776Z,4.40
2022-10-02T09:24:46.676Z,4.25
2022-10-02T09:28:00.741Z,4.63
2022-10-02T09:30:52.120Z,4.65
2022-10-02T09:33:53.747Z,4.68
2022-10-02T09:37:28.295Z,4.80
2022-10-02T09:40:33.054Z,5.53
2022-10-02T09:43:31.305Z,4.63
2022-10-02T09:46:38.345Z,4.10
2022-10-02T09:49:48.987Z,4.05
2022-10-02T09:52:50.757Z,4.05
2022-10-02T09:55:51.334Z,4.05
2022-10-02T09:58:57.097Z,4.47
2022-10-02T10:01:54.611Z,4.43
2022-10-02T10:05:04.360Z,3.33
2022-10-02T10:08:23.665Z,3.33
2022-10-02T10:11:30.529Z,3.58
2022-10-02T10:14:35.965Z,3.20
2022-10-02T10:17:48.321Z,2.75
2022-10-02T10:20:37.985Z,3.42
2022-10-02T10:23:24.695Z,3.38
2022-10-02T10:26:16.664Z,2.35
2022-10-02T10:29:22.026Z,2.42
2022-10-02T10:32:33.892Z,2.55
2022-10-02T10:35:34.385Z,2.60
2022-10-02T10:38:40.258Z,2.42
2022-10-02T10:41:36.320Z,2.00
2022-10-02T10:44:33.756Z,1.88
2022-10-02T10:47:21.068Z,2.15
2022-10-02T10:50:15.363Z,1.77
2022-10-02T10:53:06.622Z,1.67
2022-10-02T10:55:49.741Z,1.60
2022-10-02T10:58:25.253Z,2.20
2022-10-02T11:01:08.255Z,1.92
2022-10-02T11:04:00.156Z,2.10
2022-10-02T11:06:50.540Z,1.73
2022-10-02T11:09:37.634Z,2.50
2022-10-02T11:12:21.691Z,2.13
2022-10-02T11:15:06.090Z,1.90
2022-10-02T11:18:17.104Z,2.85
2022-10-02T11:21:05.118Z,1.90
2022-10-02T11:23:54.052Z,2.13
2022-10-02T11:26:32.365Z,1.73
2022-10-02T11:29:49.488Z,2.00
2022-10-02T11:32:50.036Z,2.03
2022-10-02T11:35:31.073Z,2.08
2022-10-02T11:38:43.482Z,2.20
2022-10-02T11:41:51.126Z,1.92
2022-10-02T11:44:32.992Z,1.70
2022-10-02T11:47:44.531Z,2.33
2022-10-02T11:50:38.939Z,1.77
2022-10-02T11:53:17.207Z,2.38
2022-10-02T11:55:58.838Z,1.73
2022-10-02T11:58:41.856Z,1.48
2022-10-02T12:01:17.530Z,1.75
2022-10-02T12:03:55.377Z,1.58
2022-10-02T12:06:49.032Z,1.75
2022-10-02T12:09:29.979Z,1.27
2022-10-02T12:12:13.685Z,1.70
2022-10-02T12:14:53.167Z,1.40
2022-10-02T12:17:53.316Z,1.50
2022-10-02T12:20:49.460Z,1.15
2022-10-02T12:23:48.769Z,1.50
2022-10-02T12:26:56.597Z,1.10
2022-10-02T12:29:56.514Z,1.38
2022-10-02T12:32:49.866Z,1.58
2022-10-02T12:35:33.283Z,0.90
2022-10-02T12:38:12.486Z,1.23
2022-10-02T12:40:52.626Z,1.10
2022-10-02T12:43:55.575Z,1.52
2022-10-02T12:46:49.730Z,0.90
2022-10-02T12:49:30.941Z,1.10
2022-10-02T12:52:15.685Z,0.98
2022-10-02T12:55:12.485Z,0.90
2022-10-02T12:58:05.382Z,1.02
2022-10-02T13:00:49.995Z,0.90
2022-10-02T13:03:44.191Z,0.98
2022-10-02T13:06:48.731Z,0.90
2022-10-02T13:09:29.689Z,0.82
2022-10-02T13:12:17.945Z,1.45
2022-10-02T13:15:18.431Z,1.05
2022-10-02T13:17:53.328Z,0.85
2022-10-02T13:20:37.896Z,0.85
2022-10-02T13:23:15.231Z,0.95
2022-10-02T13:25:59.843Z,1.33
2022-10-02T13:28:44.103Z,1.10
2022-10-02T13:31:24.050Z,1.05
2022-10-02T13:34:08.184Z,1.20
2022-10-02T13:36:52.656Z,1.17
2022-10-02T13:39:34.912Z,0.77
2022-10-02T13:42:21.244Z,1.30
2022-10-02T13:44:59.146Z,0.77
2022-10-02T13:47:40.481Z,0.70
2022-10-02T13:50:42.482Z,0.88
2022-10-02T13:53:31.612Z,0.60
2022-10-02T13:56:14.761Z,1.23
2022-10-02T13:59:03.634Z,0.90
2022-10-02T14:01:41.368Z,1.70
2022-10-02T14:04:24.846Z,1.52
2022-10-02T14:07:01.481Z,1.10
2022-10-02T14:09:45.606Z,1.40
2022-10-02T14:12:27.686Z,1.27
2022-10-02T14:15:13.418Z,1.50
2022-10-02T14:17:52.118Z,0.70
2022-10-02T14:20:36.135Z,1.40
2022-10-02T14:23:31.277Z,1.42
2022-10-02T14:26:11.916Z,0.90
2022-10-02T14:29:09.476Z,1.70
2022-10-02T14:32:08.755Z,0.80
2022-10-02T14:35:19.134Z,1.02
2022-10-02T14:38:05.057Z,1.10
2022-10-02T14:40:47.068Z,1.00
2022-10-02T14:43:33.453Z,1.00
2022-10-02T14:46:26.320Z,0.98
2022-10-02T14:49:10.912Z,1.02
2022-10-02T14:51:54.925Z,1.70
2022-10-02T14:54:58.225Z,1.20
2022-10-02T14:57:44.196Z,1.23
2022-10-02T15:00:22.178Z,1.20
2022-10-02T15:03:25.351Z,1.00
2022-10-02T15:06:21.909Z,1.15
2022-10-02T15:08:54.691Z,1.33
2022-10-02T15:11:45.759Z,1.08
2022-10-02T15:14:18.694Z,1.67
2022-10-02T15:17:08.527Z,1.17
2022-10-02T15:19:40.898Z,0.95
2022-10-02T15:22:19.639Z,0.95
2022-10-02T15:24:50.884Z,0.95
2022-10-02T15:27:24.666Z,1.17
2022-10-02T15:30:15.326Z,1.10
2022-10-02T15:32:56.483Z,1.75
2022-10-02T15:35:41.819Z,2.08
2022-10-02T15:38:37.834Z,1.67
2022-10-02T15:41:29.639Z,1.17
2022-10-02T15:44:09.477Z,1.30
2022-10-02T15:46:49.656Z,1.30
2022-10-02T15:49:32.092Z,1.23
2022-10-02T15:52:06.977Z,1.17
2022-10-02T15:54:53.724Z,1.00
2022-10-02T15:57:42.093Z,1.00
2022-10-02T16:00:13.601Z,1.30
2022-10-02T16:03:03.756Z,1.25
2022-10-02T16:05:53.476Z,1.92
2022-10-02T16:08:57.713Z,2.45
2022-10-02T16:11:39.480Z,1.40
2022-10-02T16:14:13.856Z,2.17
2022-10-02T16:17:24.318Z,1.63
2022-10-02T16:20:13.955Z,1.83
2022-10-02T16:22:59.474Z,1.48
2022-10-02T16:25:39.028Z,1.60
2022-10-02T16:28:17.565Z,1.30
2022-10-02T16:31:04.543Z,1.45
2022-10-02T16:33:43.362Z,1.40
2022-10-02T16:36:30.315Z,2.03
2022-10-02T16:39:25.094Z,1.63
2022-10-02T16:42:03.113Z,1.50
2022-10-02T16:44:48.371Z,1.48
2022-10-02T16:47:26.071Z,1.48
2022-10-02T16:50:00.227Z,1.40
2022-10-02T16:52:34.634Z,1.38
2022-10-02T16:55:14.493Z,1.30
2022-10-02T17:00:25.103Z,1.80
2022-10-02T17:02:57.141Z,1.80
2022-10-02T17:05:31.305Z,1.67
2022-10-02T17:08:06.567Z,1.85
2022-10-02T17:11:26.443Z,2.63
2022-10-02T17:14:13.154Z,1.63
2022-10-02T17:16:48.789Z,2.05
2022-10-02T17:19:27.162Z,1.70
2022-10-02T17:21:59.581Z,1.70
2022-10-02T17:24:41.549Z,1.67
2022-10-02T17:27:31.064Z,2.17
2022-10-02T17:30:08.222Z,1.42
2022-10-02T17:32:40.526Z,1.20
2022-10-02T17:35:16.594Z,1.40
2022-10-02T17:38:12.547Z,1.58
2022-10-02T17:40:50.897Z,2.00
2022-10-02T17:43:31.382Z,2.00
2022-10-02T17:46:21.026Z,1.50
2022-10-02T17:48:57.626Z,1.80
2022-10-02T17:51:53.061Z,1.80
2022-10-02T17:55:06.776Z,1.98
2022-10-02T17:57:44.378Z,1.50
2022-10-02T18:00:21.292Z,1.60
2022-10-02T18:03:19.437Z,2.05
2022-10-02T18:05:54.539Z,1.95
2022-10-02T18:09:10.721Z,1.58
2022-10-02T18:12:03.771Z,1.90
2022-10-02T18:15:09.264Z,1.70
2022-10-02T18:17:52.960Z,1.90
2022-10-02T18:20:30.469Z,1.98
2022-10-02T18:23:11.676Z,1.92
2022-10-02T18:25:53.604Z,2.10
2022-10-02T18:28:42.661Z,2.53
2022-10-02T18:31:51.051Z,1.60
2022-10-02T18:34:31.245Z,1.67
2022-10-02T18:37:13.247Z,1.70
2022-10-02T18:39:45.014Z,1.92
2022-10-02T18:42:39.424Z,1.85
2022-10-02T18:45:25.773Z,1.42
2022-10-02T18:48:08.154Z,2.17
2022-10-02T18:50:50.448Z,1.30
2022-10-02T18:53:42.898Z,1.92
2022-10-02T18:56:12.248Z,1.33
2022-10-02T18:58:54.499Z,1.23
2022-10-02T19:01:44.198Z,1.52
2022-10-02T19:04:40.648Z,1.70
2022-10-02T19:07:16.160Z,1.42
2022-10-02T19:09:44.490Z,1.60
2022-10-02T19:12:18.633Z,1.10
2022-10-02T19:14:48.014Z,1.60
2022-10-02T19:17:17.998Z,1.30
2022-10-02T19:19:46.040Z,1.10
2022-10-02T19:22:21.759Z,1.60
2022-10-02T19:24:52.679Z,1.27
2022-10-02T19:27:26.628Z,1.40
2022-10-02T19:29:58.587Z,1.10
2022-10-02T19:32:30.086Z,1.38
2022-10-02T19:35:03.556Z,1.15
2022-10-02T19:37:32.771Z,1.35
2022-10-02T19:40:03.104Z,1.30
2022-10-02T19:42:39.341Z,1.60
2022-10-02T19:45:24.496Z,1.67
2022-10-02T19:47:56.734Z,1.40
2022-10-02T19:50:27.950Z,1.50
2022-10-02T19:53:00.990Z,1.27
2022-10-02T19:55:33.969Z,1.40
2022-10-02T19:58:07.803Z,1.70
2022-10-02T20:00:38.999Z,1.30
2022-10-02T20:03:11.171Z,1.17
2022-10-02T20:05:39.291Z,1.65
2022-10-02T20:08:14.237Z,1.17
2022-10-02T20:10:47.369Z,1.88
2022-10-02T20:13:21.419Z,1.77
2022-10-02T20:16:12.327Z,1.65
2022-10-02T20:18:40.577Z,1.50
2022-10-02T20:21:15.794Z,3.00
2022-10-02T20:23:50.519Z,2.75
2022-10-02T20:26:22.265Z,2.30
2022-10-02T20:28:54.159Z,1.60
2022-10-02T20:31:31.133Z,2.13
2022-10-02T20:34:02.653Z,1.55
2022-10-02T20:36:39.105Z,1.98
2022-10-02T20:39:09.867Z,1.63
2022-10-02T20:41:54.319Z,1.30
2022-10-02T20:44:22.544Z,1.92
2022-10-02T20:47:23.272Z,2.00
2022-10-02T20:50:21.133Z,2.50
2022-10-02T20:53:16.448Z,1.90
2022-10-02T20:55:52.810Z,1.83
2022-10-02T20:58:47.960Z,1.98
2022-10-02T21:01:19.302Z,1.63
2022-10-02T21:04:16.137Z,1.67
2022-10-02T21:07:05.875Z,1.58
2022-10-02T21:10:11.690Z,1.80
2022-10-02T21:12:57.271Z,1.52
2022-10-02T21:15:47.860Z,1.88
2022-10-02T21:18:40.216Z,1.60
2022-10-02T21:21:49.342Z,1.75
2022-10-02T21:25:00.954Z,1.95
2022-10-02T21:28:01.370Z,2.20
2022-10-02T21:30:39.935Z,1.80
2022-10-02T21:33:15.554Z,2.17
2022-10-02T21:35:57.451Z,1.55
2022-10-02T21:38:58.243Z,1.77
2022-10-02T21:41:52.145Z,1.80
2022-10-02T21:45:00.383Z,1.70
2022-10-02T21:48:20.960Z,2.25
2022-10-02T21:51:23.880Z,1.50
2022-10-02T21:54:11.626Z,2.95
2022-10-02T21:57:11.812Z,2.60
2022-10-02T22:00:11.114Z,1.85
2022-10-02T22:03:23.359Z,2.63
2022-10-02T22:06:22.214Z,1.95
2022-10-02T22:09:07.379Z,1.98
2022-10-02T22:11:45.992Z,1.60
2022-10-02T22:14:23.482Z,2.10
2022-10-02T22:16:59.677Z,2.10
2022-10-02T22:19:41.943Z,2.20
2022-10-02T22:22:22.741Z,2.10
2022-10-02T22:25:05.165Z,2.67
2022-10-02T22:28:03.857Z,1.80
2022-10-02T22:30:41.153Z,1.70
2022-10-02T22:33:22.740Z,1.67
2022-10-02T22:36:25.418Z,1.95
2022-10-02T22:39:02.263Z,1.90
2022-10-02T22:41:36.110Z,2.10
2022-10-02T22:44:10.018Z,2.10
2022-10-02T22:46:48.066Z,2.60
2022-10-02T22:49:25.303Z,2.72
2022-10-02T22:52:01.824Z,2.50
2022-10-02T22:54:40.874Z,2.13
2022-10-02T22:57:15.469Z,4.17
2022-10-02T22:59:47.592Z,2.10
2022-10-02T23:02:23.988Z,2.67
2022-10-02T23:04:57.280Z,1.85
2022-10-02T23:07:29.764Z,2.17
2022-10-02T23:10:01.444Z,1.92
2022-10-02T23:12:38.797Z,3.88
2022-10-02T23:15:32.422Z,2.47
2022-10-02T23:18:05.968Z,1.80
2022-10-02T23:20:39.052Z,1.80
2022-10-02T23:23:15.862Z,2.03
2022-10-02T23:25:47.137Z,3.45
2022-10-02T23:28:23.951Z,3.03
2022-10-02T23:31:02.895Z,2.28
2022-10-02T23:33:42.314Z,3.00
2022-10-02T23:36:24.199Z,2.97
2022-10-02T23:38:59.221Z,2.28
2022-10-02T23:41:40.518Z,2.42
2022-10-02T23:44:23.099Z,2.03
2022-10-02T23:47:05.133Z,1.95
2022-10-02T23:49:38.947Z,2.92
2022-10-02T23:52:31.275Z,2.38
2022-10-02T23:55:09.800Z,2.22
2022-10-02T23:57:51.811Z,2.88
